sensor_id;sensor_type;location;lat;lon;timestamp;P1;durP1;ratioP1;P2;durP2;ratioP2
6280;SDS011;3173;48.204;11.612;2024-02-14T00:01:11;6.90;;;2.63;;
6280;SDS011;3173;48.204;11.612;2024-02-14T00:03:37;9.50;;;3.50;;
6280;SDS011;3173;48.204;11.612;2024-02-14T00:06:04;6.63;;;3.20;;
6280;SDS011;3173;48.204;11.612;2024-02-14T00:08:30;3.97;;;2.40;;
6280;SDS011;3173;48.204;11.612;2024-02-14T00:10:57;4.83;;;2.93;;
6280;SDS011;3173;48.204;11.612;2024-02-14T00:13:23;5.80;;;3.17;;
6280;SDS011;3173;48.204;11.612;2024-02-14T00:15:49;6.17;;;2.80;;
6280;SDS011;3173;48.204;11.612;2024-02-14T00:18:16;7.80;;;3.00;;
6280;SDS011;3173;48.204;11.612;2024-02-14T00:20:42;12.90;;;3.30;;
6280;SDS011;3173;48.204;11.612;2024-02-14T00:23:09;5.20;;;2.90;;
6280;SDS011;3173;48.204;11.612;2024-02-14T00:25:36;5.60;;;2.83;;
6280;SDS011;3173;48.204;11.612;2024-02-14T00:28:02;7.57;;;3.53;;
6280;SDS011;3173;48.204;11.612;2024-02-14T00:30:30;9.83;;;3.20;;
6280;SDS011;3173;48.204;11.612;2024-02-14T00:32:57;4.93;;;3.00;;
6280;SDS011;3173;48.204;11.612;2024-02-14T00:35:23;6.87;;;2.90;;
6280;SDS011;3173;48.204;11.612;2024-02-14T00:37:49;7.80;;;3.07;;
6280;SDS011;3173;48.204;11.612;2024-02-14T00:40:15;5.30;;;2.93;;
6280;SDS011;3173;48.204;11.612;2024-02-14T00:42:42;4.57;;;3.00;;
6280;SDS011;3173;48.204;11.612;2024-02-14T00:45:08;5.57;;;2.97;;
6280;SDS011;3173;48.204;11.612;2024-02-14T00:47:35;6.60;;;3.13;;
6280;SDS011;3173;48.204;11.612;2024-02-14T00:50:04;4.10;;;2.30;;
6280;SDS011;3173;48.204;11.612;2024-02-14T00:52:30;11.27;;;2.63;;
6280;SDS011;3173;48.204;11.612;2024-02-14T00:54:56;9.50;;;2.63;;
6280;SDS011;3173;48.204;11.612;2024-02-14T00:57:22;4.30;;;2.07;;
6280;SDS011;3173;48.204;11.612;2024-02-14T00:59:52;6.33;;;2.37;;
6280;SDS011;3173;48.204;11.612;2024-02-14T01:02:18;4.53;;;1.90;;
6280;SDS011;3173;48.204;11.612;2024-02-14T01:04:44;4.67;;;2.13;;
6280;SDS011;3173;48.204;11.612;2024-02-14T01:07:10;7.00;;;2.70;;
6280;SDS011;3173;48.204;11.612;2024-02-14T01:09:36;4.43;;;2.30;;
6280;SDS011;3173;48.204;11.612;2024-02-14T01:12:02;5.03;;;2.33;;
6280;SDS011;3173;48.204;11.612;2024-02-14T01:14:29;3.60;;;2.03;;
6280;SDS011;3173;48.204;11.612;2024-02-14T01:16:55;8.30;;;2.47;;
6280;SDS011;3173;48.204;11.612;2024-02-14T01:19:22;3.33;;;1.97;;
6280;SDS011;3173;48.204;11.612;2024-02-14T01:21:53;3.10;;;1.97;;
6280;SDS011;3173;48.204;11.612;2024-02-14T01:24:20;4.80;;;2.20;;
6280;SDS011;3173;48.204;11.612;2024-02-14T01:26:47;4.13;;;2.27;;
6280;SDS011;3173;48.204;11.612;2024-02-14T01:29:15;3.33;;;1.93;;
6280;SDS011;3173;48.204;11.612;2024-02-14T01:31:42;7.83;;;2.20;;
6280;SDS011;3173;48.204;11.612;2024-02-14T01:34:08;5.13;;;2.60;;
6280;SDS011;3173;48.204;11.612;2024-02-14T01:36:34;5.40;;;2.70;;
6280;SDS011;3173;48.204;11.612;2024-02-14T01:39:00;5.77;;;3.00;;
6280;SDS011;3173;48.204;11.612;2024-02-14T01:41:26;4.23;;;2.23;;
6280;SDS011;3173;48.204;11.612;2024-02-14T01:43:52;3.37;;;2.20;;
6280;SDS011;3173;48.204;11.612;2024-02-14T01:46:18;6.10;;;2.20;;
6280;SDS011;3173;48.204;11.612;2024-02-14T01:48:45;4.10;;;2.50;;
6280;SDS011;3173;48.204;11.612;2024-02-14T01:51:11;3.97;;;2.37;;
6280;SDS011;3173;48.204;11.612;2024-02-14T01:53:39;4.47;;;2.27;;
6280;SDS011;3173;48.204;11.612;2024-02-14T01:56:05;3.90;;;2.10;;
6280;SDS011;3173;48.204;11.612;2024-02-14T01:58:32;4.73;;;2.30;;
6280;SDS011;3173;48.204;11.612;2024-02-14T02:00:58;4.60;;;2.33;;
6280;SDS011;3173;48.204;11.612;2024-02-14T02:03:25;2.67;;;1.90;;
6280;SDS011;3173;48.204;11.612;2024-02-14T02:05:52;4.20;;;2.00;;
6280;SDS011;3173;48.204;11.612;2024-02-14T02:08:19;3.23;;;1.90;;
6280;SDS011;3173;48.204;11.612;2024-02-14T02:10:45;2.37;;;1.60;;
6280;SDS011;3173;48.204;11.612;2024-02-14T02:13:11;3.23;;;1.50;;
6280;SDS011;3173;48.204;11.612;2024-02-14T02:15:37;4.20;;;1.40;;
6280;SDS011;3173;48.204;11.612;2024-02-14T02:18:04;4.07;;;1.50;;
6280;SDS011;3173;48.204;11.612;2024-02-14T02:20:31;4.17;;;1.30;;
6280;SDS011;3173;48.204;11.612;2024-02-14T02:22:58;3.57;;;1.67;;
6280;SDS011;3173;48.204;11.612;2024-02-14T02:25:24;2.50;;;1.60;;
6280;SDS011;3173;48.204;11.612;2024-02-14T02:27:54;4.37;;;1.37;;
6280;SDS011;3173;48.204;11.612;2024-02-14T02:30:22;3.50;;;1.53;;
6280;SDS011;3173;48.204;11.612;2024-02-14T02:32:49;5.37;;;1.50;;
6280;SDS011;3173;48.204;11.612;2024-02-14T02:35:18;4.00;;;1.90;;
6280;SDS011;3173;48.204;11.612;2024-02-14T02:37:46;2.20;;;1.30;;
6280;SDS011;3173;48.204;11.612;2024-02-14T02:40:15;2.70;;;1.60;;
6280;SDS011;3173;48.204;11.612;2024-02-14T02:42:42;2.13;;;1.37;;
6280;SDS011;3173;48.204;11.612;2024-02-14T02:45:10;3.87;;;1.80;;
6280;SDS011;3173;48.204;11.612;2024-02-14T02:47:36;2.27;;;1.40;;
6280;SDS011;3173;48.204;11.612;2024-02-14T02:50:03;4.27;;;1.63;;
6280;SDS011;3173;48.204;11.612;2024-02-14T02:52:29;2.80;;;1.70;;
6280;SDS011;3173;48.204;11.612;2024-02-14T02:54:58;3.30;;;1.20;;
6280;SDS011;3173;48.204;11.612;2024-02-14T02:57:26;3.00;;;1.60;;
6280;SDS011;3173;48.204;11.612;2024-02-14T02:59:52;3.53;;;1.30;;
6280;SDS011;3173;48.204;11.612;2024-02-14T03:02:19;4.03;;;1.60;;
6280;SDS011;3173;48.204;11.612;2024-02-14T03:04:45;3.70;;;1.40;;
6280;SDS011;3173;48.204;11.612;2024-02-14T03:07:12;8.13;;;1.53;;
6280;SDS011;3173;48.204;11.612;2024-02-14T03:09:38;2.40;;;1.33;;
6280;SDS011;3173;48.204;11.612;2024-02-14T03:12:04;5.03;;;1.60;;
6280;SDS011;3173;48.204;11.612;2024-02-14T03:14:31;3.27;;;1.53;;
6280;SDS011;3173;48.204;11.612;2024-02-14T03:17:00;3.27;;;1.80;;
6280;SDS011;3173;48.204;11.612;2024-02-14T03:19:27;2.80;;;1.20;;
6280;SDS011;3173;48.204;11.612;2024-02-14T03:21:54;2.90;;;1.60;;
6280;SDS011;3173;48.204;11.612;2024-02-14T03:24:20;3.00;;;1.30;;
6280;SDS011;3173;48.204;11.612;2024-02-14T03:26:46;1.80;;;1.20;;
6280;SDS011;3173;48.204;11.612;2024-02-14T03:29:15;3.10;;;1.10;;
6280;SDS011;3173;48.204;11.612;2024-02-14T03:31:41;2.97;;;1.40;;
6280;SDS011;3173;48.204;11.612;2024-02-14T03:34:09;1.80;;;1.10;;
6280;SDS011;3173;48.204;11.612;2024-02-14T03:36:38;2.67;;;1.47;;
6280;SDS011;3173;48.204;11.612;2024-02-14T03:39:04;2.43;;;1.57;;
6280;SDS011;3173;48.204;11.612;2024-02-14T03:41:31;2.47;;;1.37;;
6280;SDS011;3173;48.204;11.612;2024-02-14T03:43:57;3.10;;;1.37;;
6280;SDS011;3173;48.204;11.612;2024-02-14T03:46:26;3.97;;;1.50;;
6280;SDS011;3173;48.204;11.612;2024-02-14T03:48:53;1.50;;;1.20;;
6280;SDS011;3173;48.204;11.612;2024-02-14T03:51:18;3.57;;;1.27;;
6280;SDS011;3173;48.204;11.612;2024-02-14T03:53:45;1.67;;;1.07;;
6280;SDS011;3173;48.204;11.612;2024-02-14T03:56:12;2.10;;;1.47;;
6280;SDS011;3173;48.204;11.612;2024-02-14T03:58:39;2.93;;;1.30;;
6280;SDS011;3173;48.204;11.612;2024-02-14T04:01:05;2.57;;;1.10;;
6280;SDS011;3173;48.204;11.612;2024-02-14T04:03:32;8.00;;;1.30;;
6280;SDS011;3173;48.204;11.612;2024-02-14T04:05:58;1.63;;;1.07;;
6280;SDS011;3173;48.204;11.612;2024-02-14T04:08:25;3.00;;;1.40;;
6280;SDS011;3173;48.204;11.612;2024-02-14T04:10:52;3.10;;;1.27;;
6280;SDS011;3173;48.204;11.612;2024-02-14T04:13:21;4.50;;;1.43;;
6280;SDS011;3173;48.204;11.612;2024-02-14T04:15:47;2.07;;;1.20;;
6280;SDS011;3173;48.204;11.612;2024-02-14T04:18:14;1.50;;;0.90;;
6280;SDS011;3173;48.204;11.612;2024-02-14T04:20:40;3.63;;;1.10;;
6280;SDS011;3173;48.204;11.612;2024-02-14T04:23:09;3.00;;;1.63;;
6280;SDS011;3173;48.204;11.612;2024-02-14T04:25:35;2.27;;;1.40;;
6280;SDS011;3173;48.204;11.612;2024-02-14T04:28:02;3.70;;;1.30;;
6280;SDS011;3173;48.204;11.612;2024-02-14T04:30:28;3.27;;;1.57;;
6280;SDS011;3173;48.204;11.612;2024-02-14T04:32:54;1.20;;;0.90;;
6280;SDS011;3173;48.204;11.612;2024-02-14T04:35:21;3.80;;;1.60;;
6280;SDS011;3173;48.204;11.612;2024-02-14T04:37:47;2.67;;;1.40;;
6280;SDS011;3173;48.204;11.612;2024-02-14T04:40:14;1.83;;;1.30;;
6280;SDS011;3173;48.204;11.612;2024-02-14T04:42:41;3.27;;;1.33;;
6280;SDS011;3173;48.204;11.612;2024-02-14T04:45:07;1.53;;;1.23;;
6280;SDS011;3173;48.204;11.612;2024-02-14T04:47:33;2.30;;;1.43;;
6280;SDS011;3173;48.204;11.612;2024-02-14T04:50:00;2.10;;;1.13;;
6280;SDS011;3173;48.204;11.612;2024-02-14T04:52:27;2.43;;;1.73;;
6280;SDS011;3173;48.204;11.612;2024-02-14T04:54:54;2.50;;;1.30;;
6280;SDS011;3173;48.204;11.612;2024-02-14T04:57:21;1.73;;;1.20;;
6280;SDS011;3173;48.204;11.612;2024-02-14T04:59:48;12.13;;;1.30;;
6280;SDS011;3173;48.204;11.612;2024-02-14T05:02:14;1.70;;;1.00;;
6280;SDS011;3173;48.204;11.612;2024-02-14T05:04:40;2.60;;;1.43;;
6280;SDS011;3173;48.204;11.612;2024-02-14T05:07:07;2.30;;;1.50;;
6280;SDS011;3173;48.204;11.612;2024-02-14T05:09:33;1.57;;;1.00;;
6280;SDS011;3173;48.204;11.612;2024-02-14T05:11:59;4.20;;;1.43;;
6280;SDS011;3173;48.204;11.612;2024-02-14T05:14:26;2.30;;;1.20;;
6280;SDS011;3173;48.204;11.612;2024-02-14T05:16:56;1.80;;;1.20;;
6280;SDS011;3173;48.204;11.612;2024-02-14T05:19:22;5.63;;;1.87;;
6280;SDS011;3173;48.204;11.612;2024-02-14T05:21:49;7.53;;;1.77;;
6280;SDS011;3173;48.204;11.612;2024-02-14T05:24:15;2.60;;;1.30;;
6280;SDS011;3173;48.204;11.612;2024-02-14T05:26:41;2.73;;;1.30;;
6280;SDS011;3173;48.204;11.612;2024-02-14T05:29:07;3.23;;;1.40;;
6280;SDS011;3173;48.204;11.612;2024-02-14T05:31:43;2.23;;;1.20;;
6280;SDS011;3173;48.204;11.612;2024-02-14T05:34:10;4.43;;;1.30;;
6280;SDS011;3173;48.204;11.612;2024-02-14T05:36:36;4.80;;;1.33;;
6280;SDS011;3173;48.204;11.612;2024-02-14T05:39:03;3.00;;;1.50;;
6280;SDS011;3173;48.204;11.612;2024-02-14T05:41:31;2.47;;;1.57;;
6280;SDS011;3173;48.204;11.612;2024-02-14T05:43:58;4.40;;;1.43;;
6280;SDS011;3173;48.204;11.612;2024-02-14T05:46:24;3.63;;;1.40;;
6280;SDS011;3173;48.204;11.612;2024-02-14T05:48:51;3.77;;;1.23;;
6280;SDS011;3173;48.204;11.612;2024-02-14T05:51:22;5.80;;;1.30;;
6280;SDS011;3173;48.204;11.612;2024-02-14T05:53:48;1.97;;;1.20;;
6280;SDS011;3173;48.204;11.612;2024-02-14T05:56:14;2.57;;;1.50;;
6280;SDS011;3173;48.204;11.612;2024-02-14T05:58:40;2.20;;;1.10;;
6280;SDS011;3173;48.204;11.612;2024-02-14T06:01:06;3.10;;;1.10;;
6280;SDS011;3173;48.204;11.612;2024-02-14T06:03:33;3.30;;;1.50;;
6280;SDS011;3173;48.204;11.612;2024-02-14T06:05:59;4.10;;;1.30;;
6280;SDS011;3173;48.204;11.612;2024-02-14T06:08:25;2.40;;;1.40;;
6280;SDS011;3173;48.204;11.612;2024-02-14T06:10:52;4.70;;;1.60;;
6280;SDS011;3173;48.204;11.612;2024-02-14T06:13:18;5.70;;;1.60;;
6280;SDS011;3173;48.204;11.612;2024-02-14T06:15:44;5.53;;;1.73;;
6280;SDS011;3173;48.204;11.612;2024-02-14T06:18:10;3.30;;;1.63;;
6280;SDS011;3173;48.204;11.612;2024-02-14T06:20:37;3.60;;;1.80;;
6280;SDS011;3173;48.204;11.612;2024-02-14T06:23:04;7.57;;;1.67;;
6280;SDS011;3173;48.204;11.612;2024-02-14T06:25:32;2.80;;;1.50;;
6280;SDS011;3173;48.204;11.612;2024-02-14T06:27:58;10.03;;;1.60;;
6280;SDS011;3173;48.204;11.612;2024-02-14T06:30:24;2.80;;;1.47;;
6280;SDS011;3173;48.204;11.612;2024-02-14T06:32:51;2.43;;;1.80;;
6280;SDS011;3173;48.204;11.612;2024-02-14T06:35:17;6.90;;;1.77;;
6280;SDS011;3173;48.204;11.612;2024-02-14T06:37:44;7.50;;;1.70;;
6280;SDS011;3173;48.204;11.612;2024-02-14T06:40:10;4.90;;;1.47;;
6280;SDS011;3173;48.204;11.612;2024-02-14T06:42:37;6.30;;;2.00;;
6280;SDS011;3173;48.204;11.612;2024-02-14T06:45:03;4.10;;;2.13;;
6280;SDS011;3173;48.204;11.612;2024-02-14T06:47:30;5.90;;;2.00;;
6280;SDS011;3173;48.204;11.612;2024-02-14T06:49:56;1.97;;;1.67;;
6280;SDS011;3173;48.204;11.612;2024-02-14T06:52:22;3.30;;;1.53;;
6280;SDS011;3173;48.204;11.612;2024-02-14T06:54:49;3.23;;;1.40;;
6280;SDS011;3173;48.204;11.612;2024-02-14T06:57:16;7.00;;;1.50;;
6280;SDS011;3173;48.204;11.612;2024-02-14T06:59:43;6.43;;;1.70;;
6280;SDS011;3173;48.204;11.612;2024-02-14T07:02:09;8.43;;;1.93;;
6280;SDS011;3173;48.204;11.612;2024-02-14T07:04:35;6.80;;;1.50;;
6280;SDS011;3173;48.204;11.612;2024-02-14T07:07:02;2.37;;;1.30;;
6280;SDS011;3173;48.204;11.612;2024-02-14T07:09:28;1.70;;;1.20;;
6280;SDS011;3173;48.204;11.612;2024-02-14T07:11:54;2.03;;;1.30;;
6280;SDS011;3173;48.204;11.612;2024-02-14T07:14:23;2.40;;;1.20;;
6280;SDS011;3173;48.204;11.612;2024-02-14T07:16:49;10.23;;;1.47;;
6280;SDS011;3173;48.204;11.612;2024-02-14T07:19:16;7.00;;;1.37;;
6280;SDS011;3173;48.204;11.612;2024-02-14T07:21:42;4.63;;;1.40;;
6280;SDS011;3173;48.204;11.612;2024-02-14T07:24:09;5.77;;;1.33;;
6280;SDS011;3173;48.204;11.612;2024-02-14T07:26:35;9.70;;;1.50;;
6280;SDS011;3173;48.204;11.612;2024-02-14T07:29:01;3.00;;;1.60;;
6280;SDS011;3173;48.204;11.612;2024-02-14T07:31:29;4.10;;;1.73;;
6280;SDS011;3173;48.204;11.612;2024-02-14T07:33:56;10.97;;;1.80;;
6280;SDS011;3173;48.204;11.612;2024-02-14T07:36:23;6.20;;;2.37;;
6280;SDS011;3173;48.204;11.612;2024-02-14T07:38:49;3.80;;;2.40;;
6280;SDS011;3173;48.204;11.612;2024-02-14T07:41:15;3.17;;;1.60;;
6280;SDS011;3173;48.204;11.612;2024-02-14T07:43:41;4.23;;;1.60;;
6280;SDS011;3173;48.204;11.612;2024-02-14T07:46:08;4.63;;;2.17;;
6280;SDS011;3173;48.204;11.612;2024-02-14T07:48:34;3.37;;;1.40;;
6280;SDS011;3173;48.204;11.612;2024-02-14T07:51:01;7.90;;;1.63;;
6280;SDS011;3173;48.204;11.612;2024-02-14T07:53:27;5.00;;;1.60;;
6280;SDS011;3173;48.204;11.612;2024-02-14T07:55:53;5.13;;;1.70;;
6280;SDS011;3173;48.204;11.612;2024-02-14T07:58:19;6.73;;;1.70;;
6280;SDS011;3173;48.204;11.612;2024-02-14T08:00:46;8.27;;;2.27;;
6280;SDS011;3173;48.204;11.612;2024-02-14T08:03:12;4.23;;;1.60;;
6280;SDS011;3173;48.204;11.612;2024-02-14T08:05:38;5.13;;;1.63;;
6280;SDS011;3173;48.204;11.612;2024-02-14T08:08:06;6.37;;;1.50;;
6280;SDS011;3173;48.204;11.612;2024-02-14T08:10:32;4.13;;;1.60;;
6280;SDS011;3173;48.204;11.612;2024-02-14T08:12:58;2.77;;;1.50;;
6280;SDS011;3173;48.204;11.612;2024-02-14T08:15:24;3.93;;;1.87;;
6280;SDS011;3173;48.204;11.612;2024-02-14T08:17:51;3.80;;;1.50;;
6280;SDS011;3173;48.204;11.612;2024-02-14T08:20:20;2.87;;;1.20;;
6280;SDS011;3173;48.204;11.612;2024-02-14T08:22:47;5.20;;;1.47;;
6280;SDS011;3173;48.204;11.612;2024-02-14T08:25:13;4.03;;;1.53;;
6280;SDS011;3173;48.204;11.612;2024-02-14T08:27:39;4.43;;;1.70;;
6280;SDS011;3173;48.204;11.612;2024-02-14T08:30:05;2.70;;;1.23;;
6280;SDS011;3173;48.204;11.612;2024-02-14T08:32:32;6.00;;;1.70;;
6280;SDS011;3173;48.204;11.612;2024-02-14T08:34:59;8.63;;;2.40;;
6280;SDS011;3173;48.204;11.612;2024-02-14T08:37:26;2.90;;;1.80;;
6280;SDS011;3173;48.204;11.612;2024-02-14T08:39:52;7.70;;;1.60;;
6280;SDS011;3173;48.204;11.612;2024-02-14T08:42:19;7.07;;;1.23;;
6280;SDS011;3173;48.204;11.612;2024-02-14T08:44:45;2.53;;;1.23;;
6280;SDS011;3173;48.204;11.612;2024-02-14T08:47:11;2.80;;;1.40;;
6280;SDS011;3173;48.204;11.612;2024-02-14T08:49:40;7.43;;;1.50;;
6280;SDS011;3173;48.204;11.612;2024-02-14T08:52:06;1.97;;;1.10;;
6280;SDS011;3173;48.204;11.612;2024-02-14T08:54:33;3.07;;;1.53;;
6280;SDS011;3173;48.204;11.612;2024-02-14T08:57:00;10.03;;;1.40;;
6280;SDS011;3173;48.204;11.612;2024-02-14T08:59:26;3.87;;;1.50;;
6280;SDS011;3173;48.204;11.612;2024-02-14T09:01:52;3.90;;;1.27;;
6280;SDS011;3173;48.204;11.612;2024-02-14T09:04:18;4.80;;;1.40;;
6280;SDS011;3173;48.204;11.612;2024-02-14T09:06:44;4.23;;;1.23;;
6280;SDS011;3173;48.204;11.612;2024-02-14T09:09:11;2.80;;;1.00;;
6280;SDS011;3173;48.204;11.612;2024-02-14T09:11:40;2.83;;;1.33;;
6280;SDS011;3173;48.204;11.612;2024-02-14T09:14:06;6.10;;;1.67;;
6280;SDS011;3173;48.204;11.612;2024-02-14T09:16:33;6.23;;;1.50;;
6280;SDS011;3173;48.204;11.612;2024-02-14T09:18:59;4.00;;;1.40;;
6280;SDS011;3173;48.204;11.612;2024-02-14T09:21:32;3.47;;;1.60;;
6280;SDS011;3173;48.204;11.612;2024-02-14T09:23:59;1.67;;;1.10;;
6280;SDS011;3173;48.204;11.612;2024-02-14T09:26:25;3.93;;;2.10;;
6280;SDS011;3173;48.204;11.612;2024-02-14T09:28:51;5.43;;;1.33;;
6280;SDS011;3173;48.204;11.612;2024-02-14T09:31:18;6.03;;;1.20;;
6280;SDS011;3173;48.204;11.612;2024-02-14T09:33:48;7.40;;;1.60;;
6280;SDS011;3173;48.204;11.612;2024-02-14T09:36:14;2.80;;;1.10;;
6280;SDS011;3173;48.204;11.612;2024-02-14T09:38:41;3.30;;;1.47;;
6280;SDS011;3173;48.204;11.612;2024-02-14T09:43:41;2.33;;;1.00;;
6280;SDS011;3173;48.204;11.612;2024-02-14T09:46:09;2.60;;;1.27;;
6280;SDS011;3173;48.204;11.612;2024-02-14T09:48:37;3.30;;;1.27;;
6280;SDS011;3173;48.204;11.612;2024-02-14T09:51:04;3.57;;;1.30;;
6280;SDS011;3173;48.204;11.612;2024-02-14T09:53:31;3.33;;;1.27;;
6280;SDS011;3173;48.204;11.612;2024-02-14T09:55:58;2.30;;;1.40;;
6280;SDS011;3173;48.204;11.612;2024-02-14T09:58:25;2.80;;;1.10;;
6280;SDS011;3173;48.204;11.612;2024-02-14T10:00:52;5.33;;;1.13;;
6280;SDS011;3173;48.204;11.612;2024-02-14T10:03:18;2.17;;;1.00;;
6280;SDS011;3173;48.204;11.612;2024-02-14T10:05:44;2.10;;;1.00;;
6280;SDS011;3173;48.204;11.612;2024-02-14T10:08:11;4.43;;;1.23;;
6280;SDS011;3173;48.204;11.612;2024-02-14T10:10:37;7.90;;;1.10;;
6280;SDS011;3173;48.204;11.612;2024-02-14T10:13:04;2.43;;;1.13;;
6280;SDS011;3173;48.204;11.612;2024-02-14T10:15:31;3.33;;;1.30;;
6280;SDS011;3173;48.204;11.612;2024-02-14T10:17:58;12.73;;;1.03;;
6280;SDS011;3173;48.204;11.612;2024-02-14T10:20:25;2.07;;;0.90;;
6280;SDS011;3173;48.204;11.612;2024-02-14T10:22:51;9.30;;;1.20;;
6280;SDS011;3173;48.204;11.612;2024-02-14T10:25:18;2.33;;;0.83;;
6280;SDS011;3173;48.204;11.612;2024-02-14T10:27:44;5.00;;;0.90;;
6280;SDS011;3173;48.204;11.612;2024-02-14T10:30:12;2.77;;;1.23;;
6280;SDS011;3173;48.204;11.612;2024-02-14T10:32:39;2.63;;;0.90;;
6280;SDS011;3173;48.204;11.612;2024-02-14T10:35:06;1.43;;;0.73;;
6280;SDS011;3173;48.204;11.612;2024-02-14T10:37:37;3.30;;;1.10;;
6280;SDS011;3173;48.204;11.612;2024-02-14T10:40:04;3.50;;;0.97;;
6280;SDS011;3173;48.204;11.612;2024-02-14T10:42:31;2.93;;;0.90;;
6280;SDS011;3173;48.204;11.612;2024-02-14T10:44:58;3.47;;;0.90;;
6280;SDS011;3173;48.204;11.612;2024-02-14T10:47:31;1.80;;;0.87;;
6280;SDS011;3173;48.204;11.612;2024-02-14T10:50:00;5.43;;;0.90;;
6280;SDS011;3173;48.204;11.612;2024-02-14T10:52:28;1.63;;;0.80;;
6280;SDS011;3173;48.204;11.612;2024-02-14T10:54:58;2.83;;;1.53;;
6280;SDS011;3173;48.204;11.612;2024-02-14T10:57:25;3.90;;;0.70;;
6280;SDS011;3173;48.204;11.612;2024-02-14T10:59:52;3.07;;;1.00;;
6280;SDS011;3173;48.204;11.612;2024-02-14T11:02:19;3.83;;;0.93;;
6280;SDS011;3173;48.204;11.612;2024-02-14T11:04:46;2.57;;;0.80;;
6280;SDS011;3173;48.204;11.612;2024-02-14T11:07:12;3.33;;;1.00;;
6280;SDS011;3173;48.204;11.612;2024-02-14T11:09:40;2.77;;;0.70;;
6280;SDS011;3173;48.204;11.612;2024-02-14T11:12:07;1.37;;;0.70;;
6280;SDS011;3173;48.204;11.612;2024-02-14T11:14:37;2.60;;;0.67;;
6280;SDS011;3173;48.204;11.612;2024-02-14T11:17:09;3.20;;;0.70;;
6280;SDS011;3173;48.204;11.612;2024-02-14T11:19:35;1.67;;;0.80;;
6280;SDS011;3173;48.204;11.612;2024-02-14T11:22:11;2.53;;;0.70;;
6280;SDS011;3173;48.204;11.612;2024-02-14T11:24:38;1.83;;;0.70;;
6280;SDS011;3173;48.204;11.612;2024-02-14T11:27:09;3.73;;;0.80;;
6280;SDS011;3173;48.204;11.612;2024-02-14T11:29:35;2.00;;;0.63;;
6280;SDS011;3173;48.204;11.612;2024-02-14T11:32:01;2.80;;;0.70;;
6280;SDS011;3173;48.204;11.612;2024-02-14T11:34:28;2.03;;;0.80;;
6280;SDS011;3173;48.204;11.612;2024-02-14T11:36:58;4.13;;;0.87;;
6280;SDS011;3173;48.204;11.612;2024-02-14T11:39:25;2.53;;;0.70;;
6280;SDS011;3173;48.204;11.612;2024-02-14T11:41:51;2.13;;;0.70;;
6280;SDS011;3173;48.204;11.612;2024-02-14T11:44:20;1.47;;;0.87;;
6280;SDS011;3173;48.204;11.612;2024-02-14T11:46:51;2.93;;;1.00;;
6280;SDS011;3173;48.204;11.612;2024-02-14T11:49:18;5.17;;;0.80;;
6280;SDS011;3173;48.204;11.612;2024-02-14T11:51:44;3.00;;;0.90;;
6280;SDS011;3173;48.204;11.612;2024-02-14T11:54:10;2.33;;;1.00;;
6280;SDS011;3173;48.204;11.612;2024-02-14T11:56:37;7.13;;;0.80;;
6280;SDS011;3173;48.204;11.612;2024-02-14T11:59:04;2.30;;;0.80;;
6280;SDS011;3173;48.204;11.612;2024-02-14T12:04:14;5.40;;;0.80;;
6280;SDS011;3173;48.204;11.612;2024-02-14T12:06:41;1.40;;;0.80;;
6280;SDS011;3173;48.204;11.612;2024-02-14T12:09:07;2.03;;;0.80;;
6280;SDS011;3173;48.204;11.612;2024-02-14T12:11:38;1.70;;;0.70;;
6280;SDS011;3173;48.204;11.612;2024-02-14T12:14:05;1.73;;;0.80;;
6280;SDS011;3173;48.204;11.612;2024-02-14T12:16:34;2.43;;;0.80;;
6280;SDS011;3173;48.204;11.612;2024-02-14T12:19:05;4.77;;;0.80;;
6280;SDS011;3173;48.204;11.612;2024-02-14T12:21:36;5.47;;;0.80;;
6280;SDS011;3173;48.204;11.612;2024-02-14T12:24:11;1.83;;;0.80;;
6280;SDS011;3173;48.204;11.612;2024-02-14T12:26:39;2.53;;;0.90;;
6280;SDS011;3173;48.204;11.612;2024-02-14T12:29:06;1.90;;;0.90;;
6280;SDS011;3173;48.204;11.612;2024-02-14T12:31:33;1.80;;;1.00;;
6280;SDS011;3173;48.204;11.612;2024-02-14T12:34:00;1.33;;;0.80;;
6280;SDS011;3173;48.204;11.612;2024-02-14T12:36:30;1.97;;;0.90;;
6280;SDS011;3173;48.204;11.612;2024-02-14T12:38:58;2.00;;;0.80;;
6280;SDS011;3173;48.204;11.612;2024-02-14T12:41:24;1.37;;;0.80;;
6280;SDS011;3173;48.204;11.612;2024-02-14T12:43:55;2.27;;;0.90;;
6280;SDS011;3173;48.204;11.612;2024-02-14T12:46:21;1.33;;;0.70;;
6280;SDS011;3173;48.204;11.612;2024-02-14T12:48:47;5.90;;;0.90;;
6280;SDS011;3173;48.204;11.612;2024-02-14T12:51:13;1.40;;;0.73;;
6280;SDS011;3173;48.204;11.612;2024-02-14T12:53:40;1.80;;;0.70;;
6280;SDS011;3173;48.204;11.612;2024-02-14T12:56:09;1.50;;;0.90;;
6280;SDS011;3173;48.204;11.612;2024-02-14T12:58:35;1.93;;;0.87;;
6280;SDS011;3173;48.204;11.612;2024-02-14T13:01:02;2.07;;;0.77;;
6280;SDS011;3173;48.204;11.612;2024-02-14T13:03:32;2.10;;;0.70;;
6280;SDS011;3173;48.204;11.612;2024-02-14T13:05:59;4.13;;;0.80;;
6280;SDS011;3173;48.204;11.612;2024-02-14T13:08:25;1.87;;;0.80;;
6280;SDS011;3173;48.204;11.612;2024-02-14T13:10:51;1.70;;;0.70;;
6280;SDS011;3173;48.204;11.612;2024-02-14T13:13:18;2.37;;;0.70;;
6280;SDS011;3173;48.204;11.612;2024-02-14T13:15:44;5.93;;;0.97;;
6280;SDS011;3173;48.204;11.612;2024-02-14T13:18:10;1.83;;;0.70;;
6280;SDS011;3173;48.204;11.612;2024-02-14T13:20:36;1.47;;;0.80;;
6280;SDS011;3173;48.204;11.612;2024-02-14T13:23:04;3.30;;;1.00;;
6280;SDS011;3173;48.204;11.612;2024-02-14T13:25:34;3.33;;;0.90;;
6280;SDS011;3173;48.204;11.612;2024-02-14T13:28:01;2.33;;;0.90;;
6280;SDS011;3173;48.204;11.612;2024-02-14T13:30:27;1.50;;;0.80;;
6280;SDS011;3173;48.204;11.612;2024-02-14T13:32:55;2.60;;;1.00;;
6280;SDS011;3173;48.204;11.612;2024-02-14T13:35:21;2.70;;;1.20;;
6280;SDS011;3173;48.204;11.612;2024-02-14T13:37:48;2.67;;;1.37;;
6280;SDS011;3173;48.204;11.612;2024-02-14T13:40:15;4.70;;;1.23;;
6280;SDS011;3173;48.204;11.612;2024-02-14T13:42:41;1.40;;;1.00;;
6280;SDS011;3173;48.204;11.612;2024-02-14T13:45:07;1.80;;;1.00;;
6280;SDS011;3173;48.204;11.612;2024-02-14T13:47:37;2.23;;;0.97;;
6280;SDS011;3173;48.204;11.612;2024-02-14T13:50:08;1.90;;;0.90;;
6280;SDS011;3173;48.204;11.612;2024-02-14T13:52:35;1.80;;;0.80;;
6280;SDS011;3173;48.204;11.612;2024-02-14T13:55:02;2.87;;;0.97;;
6280;SDS011;3173;48.204;11.612;2024-02-14T13:57:30;2.47;;;1.00;;
6280;SDS011;3173;48.204;11.612;2024-02-14T13:59:56;2.40;;;1.00;;
6280;SDS011;3173;48.204;11.612;2024-02-14T14:02:22;1.47;;;0.80;;
6280;SDS011;3173;48.204;11.612;2024-02-14T14:04:48;10.33;;;1.00;;
6280;SDS011;3173;48.204;11.612;2024-02-14T14:07:15;1.73;;;0.80;;
6280;SDS011;3173;48.204;11.612;2024-02-14T14:09:41;2.23;;;1.00;;
6280;SDS011;3173;48.204;11.612;2024-02-14T14:12:07;2.70;;;1.00;;
6280;SDS011;3173;48.204;11.612;2024-02-14T14:14:33;1.20;;;0.80;;
6280;SDS011;3173;48.204;11.612;2024-02-14T14:16:59;1.20;;;0.77;;
6280;SDS011;3173;48.204;11.612;2024-02-14T14:19:26;1.10;;;0.60;;
6280;SDS011;3173;48.204;11.612;2024-02-14T14:21:52;2.43;;;0.93;;
6280;SDS011;3173;48.204;11.612;2024-02-14T14:24:18;2.70;;;0.93;;
6280;SDS011;3173;48.204;11.612;2024-02-14T14:26:44;4.40;;;0.83;;
6280;SDS011;3173;48.204;11.612;2024-02-14T14:29:10;1.27;;;0.70;;
6280;SDS011;3173;48.204;11.612;2024-02-14T14:31:36;1.30;;;0.70;;
6280;SDS011;3173;48.204;11.612;2024-02-14T14:34:03;2.80;;;0.80;;
6280;SDS011;3173;48.204;11.612;2024-02-14T14:36:29;1.17;;;0.80;;
6280;SDS011;3173;48.204;11.612;2024-02-14T14:38:55;2.13;;;0.80;;
6280;SDS011;3173;48.204;11.612;2024-02-14T14:41:21;3.97;;;0.90;;
6280;SDS011;3173;48.204;11.612;2024-02-14T14:43:47;2.50;;;1.10;;
6280;SDS011;3173;48.204;11.612;2024-02-14T14:46:14;4.53;;;1.00;;
6280;SDS011;3173;48.204;11.612;2024-02-14T14:48:40;1.50;;;0.80;;
6280;SDS011;3173;48.204;11.612;2024-02-14T14:51:07;2.70;;;1.00;;
6280;SDS011;3173;48.204;11.612;2024-02-14T14:53:33;3.50;;;0.90;;
6280;SDS011;3173;48.204;11.612;2024-02-14T14:56:00;1.30;;;0.90;;
6280;SDS011;3173;48.204;11.612;2024-02-14T14:58:26;1.30;;;1.00;;
6280;SDS011;3173;48.204;11.612;2024-02-14T15:00:53;2.70;;;0.90;;
6280;SDS011;3173;48.204;11.612;2024-02-14T15:03:25;1.97;;;0.97;;